Forside
METAR-TAF:

METAR-TAF

Lufthavne :

Richmond, Australien

Breddekreds: 33-36S, længdekreds: 150-47E, højde: 21 m

Aktuelle vejr

Denne rapport blev lavet for 17 minutter siden, kl. 00:30 UTC
Vind 13 kt fra sydøst
Temperatur 25°C
Fugtighed 54%
Tryk 1028 hPa
Sigt 10 km eller mere
Spredte skyer i en højde af 4100 ft
Spredte skyer i en højde af 5400 ft
Brudte skyer i en højde af 6800 ft

METAR: YSRI 240030Z AUTO 14013KT 9999 // SCT041 SCT054 BKN068 25/15 Q1028

Tid: 11:47 (00:47 UTC)

Vejrudsigter

Denne rapport blev lavet for 1 time og 39 minutter siden, kl. 23:08 UTC
Foreløbig gælder fra 24 på 00 UTC til 24 på 24 UTC
Vind 12 kt fra sydsydøst
Sigt 10 km eller mere
Brudte skyer i en højde af 6000 ft
Fra 24 på 1200 UTC
Vind 5 kt fra syd
Sigt 10 km eller mere
Spredte skyer i en højde af 2500 ft
Brudte skyer i en højde af 4000 ft

TAF: YSRI 232308Z 2400/2424 15012KT 9999 BKN060 FM241200 18005KT 9999 SCT025 BKN040

Vejrobservationer og prognoser fra mere end 4000 lufthavne (METAR og TAF).

De gule og røde prikker repræsenterer de meteorologiske stationer.

Flyt musen over at se navnet på stationen.

Så klik over at se vejr observationer og prognoser.

At skifte det kort: Klik på de grønne knapper med et sort kors for at zoome ind; på den grønne knap med en bindestreg for at zoome ud; eller på de grønne pile for tilstødende kort.


METAR-TAF: